createdAt,value
2018-10-07T00:00:24.575Z,19.30
2018-10-07T00:02:54.097Z,19.22
2018-10-07T00:05:23.633Z,19.11
2018-10-07T00:07:53.636Z,19.09
2018-10-07T00:10:23.356Z,19.07
2018-10-07T00:12:52.935Z,18.95
2018-10-07T00:15:23.173Z,19.01
2018-10-07T00:17:52.761Z,19.03
2018-10-07T00:20:22.532Z,18.33
2018-10-07T00:22:52.517Z,19.07
2018-10-07T00:25:21.978Z,19.05
2018-10-07T00:27:51.526Z,19.03
2018-10-07T00:30:21.873Z,19.09
2018-10-07T00:32:51.496Z,18.97
2018-10-07T00:35:21.891Z,18.94
2018-10-07T00:37:51.962Z,18.81
2018-10-07T00:40:21.526Z,18.90
2018-10-07T00:42:51.794Z,18.80
2018-10-07T00:45:21.762Z,18.95
2018-10-07T00:47:51.930Z,18.79
2018-10-07T00:50:23.325Z,18.86
2018-10-07T00:52:52.799Z,18.72
2018-10-07T00:55:23.380Z,18.73
2018-10-07T00:57:53.751Z,18.88
2018-10-07T01:00:24.264Z,18.95
2018-10-07T01:02:53.854Z,18.93
2018-10-07T01:05:23.448Z,18.89
2018-10-07T01:07:53.618Z,18.95
2018-10-07T01:10:23.453Z,19.04
2018-10-07T01:12:53.195Z,18.99
2018-10-07T01:15:23.329Z,19.00
2018-10-07T01:17:54.467Z,18.98
2018-10-07T01:20:23.969Z,18.90
2018-10-07T01:22:53.606Z,18.94
2018-10-07T01:25:23.254Z,18.95
2018-10-07T01:27:53.474Z,18.79
2018-10-07T01:30:30.220Z,18.79
2018-10-07T01:33:00.417Z,18.79
2018-10-07T01:35:30.594Z,18.77
2018-10-07T01:38:00.043Z,18.73
2018-10-07T01:40:30.134Z,18.63
2018-10-07T01:42:59.523Z,18.63
2018-10-07T01:45:30.450Z,18.68
2018-10-07T01:48:00.224Z,18.63
2018-10-07T01:50:30.193Z,18.56
2018-10-07T01:52:59.880Z,18.37
2018-10-07T01:55:30.139Z,18.25
2018-10-07T01:57:59.822Z,18.09
2018-10-07T02:00:29.386Z,17.98
2018-10-07T02:03:12.378Z,17.91
2018-10-07T02:05:42.998Z,17.89
2018-10-07T02:08:14.635Z,17.89
2018-10-07T02:10:44.906Z,17.89
2018-10-07T08:39:39.079Z,15.11
2018-10-07T08:42:09.589Z,15.12
2018-10-07T08:44:38.989Z,15.38
2018-10-07T08:49:39.168Z,15.86
2018-10-07T08:52:10.233Z,15.79
2018-10-07T08:54:41.322Z,16.20
2018-10-07T08:57:14.214Z,16.66
2018-10-07T08:59:47.250Z,17.37
2018-10-07T09:02:17.999Z,17.21
2018-10-07T09:04:50.796Z,16.74
2018-10-07T09:07:21.314Z,16.61
2018-10-07T09:09:51.411Z,16.70
2018-10-07T09:12:28.317Z,16.83
2018-10-07T09:15:20.278Z,17.06
2018-10-07T09:17:49.879Z,16.76
2018-10-07T09:20:23.099Z,16.86
2018-10-07T09:22:53.324Z,16.84
2018-10-07T09:25:23.058Z,16.76
2018-10-07T09:27:59.072Z,16.23
2018-10-07T09:30:29.934Z,16.30
2018-10-07T09:33:10.888Z,17.06
2018-10-07T09:35:40.646Z,17.75
2018-10-07T09:38:11.530Z,18.16
2018-10-07T09:40:48.140Z,18.58
2018-10-07T09:43:19.577Z,18.54
2018-10-07T09:45:53.679Z,18.36
2018-10-07T09:48:40.768Z,18.43
2018-10-07T09:51:11.233Z,18.38
2018-10-07T09:53:55.776Z,18.80
2018-10-07T09:56:27.384Z,18.94
2018-10-07T09:59:05.426Z,19.37
2018-10-07T10:01:36.413Z,18.72
2018-10-07T10:04:08.490Z,18.95
2018-10-07T10:06:48.224Z,18.74
2018-10-07T10:09:20.744Z,19.03
2018-10-07T10:11:51.614Z,18.74
2018-10-07T10:14:21.489Z,19.09
2018-10-07T10:16:59.145Z,18.93
2018-10-07T10:19:53.258Z,19.31
2018-10-07T10:22:37.203Z,19.57
2018-10-07T10:26:15.539Z,19.62
2018-10-07T10:28:57.322Z,19.46
2018-10-07T10:33:43.638Z,19.45
2018-10-07T10:36:27.524Z,20.53
2018-10-07T10:43:24.193Z,20.73
2018-10-07T10:46:02.680Z,22.15
2018-10-07T10:48:45.824Z,21.69
2018-10-07T10:52:27.092Z,21.46
2018-10-07T10:55:08.382Z,22.17
2018-10-07T10:57:45.375Z,22.10
2018-10-07T11:00:35.190Z,22.05
2018-10-07T11:03:21.074Z,21.72
2018-10-07T11:06:29.285Z,21.61
2018-10-07T11:11:16.963Z,21.50
2018-10-07T11:14:08.244Z,20.69
2018-10-07T11:23:42.285Z,20.76
2018-10-07T11:26:22.367Z,21.11
2018-10-07T11:29:07.097Z,20.97
2018-10-07T11:31:53.270Z,20.98
2018-10-07T11:35:15.699Z,21.70
2018-10-07T11:38:27.986Z,21.07
2018-10-07T11:41:49.324Z,21.14
2018-10-07T11:44:32.365Z,20.84
2018-10-07T11:48:58.529Z,21.07
2018-10-07T11:51:39.739Z,20.69
2018-10-07T11:54:18.387Z,21.02
2018-10-07T11:56:52.522Z,20.94
2018-10-07T11:59:24.537Z,21.12
2018-10-07T12:01:56.129Z,20.94
2018-10-07T12:04:27.355Z,20.77
2018-10-07T12:06:58.502Z,20.60
2018-10-07T12:09:33.309Z,20.65
2018-10-07T12:12:06.256Z,20.56
2018-10-07T12:14:38.553Z,20.61
2018-10-07T12:17:10.643Z,20.66
2018-10-07T12:19:41.816Z,20.55
2018-10-07T12:22:13.321Z,20.63
2018-10-07T12:24:43.937Z,20.78
2018-10-07T12:27:14.603Z,20.65
2018-10-07T12:29:45.275Z,20.56
2018-10-07T12:32:18.348Z,20.73
2018-10-07T12:34:53.369Z,20.69
2018-10-07T12:37:24.608Z,20.36
2018-10-07T12:39:57.060Z,20.73
2018-10-07T12:42:39.011Z,20.98
2018-10-07T12:48:13.832Z,20.80
2018-10-07T12:50:46.311Z,20.98
2018-10-07T12:53:15.931Z,21.01
2018-10-07T12:55:45.611Z,21.32
2018-10-07T12:58:19.511Z,21.30
2018-10-07T13:01:01.296Z,21.38
2018-10-07T13:03:31.692Z,21.28
2018-10-07T13:06:01.363Z,21.29
2018-10-07T13:08:30.755Z,21.67
2018-10-07T13:11:04.024Z,21.85
2018-10-07T13:13:35.393Z,21.85
2018-10-07T13:16:06.187Z,21.64
2018-10-07T13:18:37.453Z,21.43
2018-10-07T13:21:07.636Z,21.32
2018-10-07T13:23:38.446Z,21.46
2018-10-07T13:26:11.384Z,21.53
2018-10-07T13:28:49.250Z,20.88
2018-10-07T13:31:20.289Z,20.57
2018-10-07T13:33:50.085Z,20.40
2018-10-07T13:36:22.041Z,20.23
2018-10-07T13:38:53.122Z,20.12
2018-10-07T13:41:23.726Z,20.20
2018-10-07T13:43:56.745Z,19.42
2018-10-07T13:46:30.003Z,19.56
2018-10-07T13:49:05.403Z,19.48
2018-10-07T13:51:36.549Z,19.58
2018-10-07T13:54:06.589Z,19.63
2018-10-07T13:56:38.138Z,19.56
2018-10-07T13:59:07.636Z,19.30
2018-10-07T14:01:42.180Z,19.33
2018-10-07T14:04:11.857Z,19.36
2018-10-07T14:06:43.135Z,19.23
2018-10-07T14:09:12.883Z,19.13
2018-10-07T14:11:43.572Z,19.04
2018-10-07T14:14:17.591Z,19.09
2018-10-07T14:16:48.597Z,19.32
2018-10-07T14:19:19.485Z,19.59
2018-10-07T14:21:55.898Z,19.58
2018-10-07T14:24:25.552Z,19.39
2018-10-07T14:26:58.685Z,19.23
2018-10-07T14:29:33.019Z,19.26
2018-10-07T14:32:04.308Z,19.37
2018-10-07T14:34:34.157Z,19.44
2018-10-07T14:37:05.936Z,19.35
2018-10-07T14:39:39.361Z,19.29
2018-10-07T14:42:09.520Z,19.29
2018-10-07T14:44:42.014Z,19.24
2018-10-07T14:47:11.783Z,19.15
2018-10-07T14:49:45.235Z,19.08
2018-10-07T14:52:15.833Z,18.98
2018-10-07T14:54:47.873Z,18.80
2018-10-07T14:57:19.876Z,18.79
2018-10-07T14:59:50.576Z,18.70
2018-10-07T15:02:21.527Z,18.69
2018-10-07T15:04:56.688Z,18.48
2018-10-07T15:07:27.692Z,18.71
2018-10-07T15:09:59.319Z,18.76
2018-10-07T15:12:31.401Z,18.67
2018-10-07T15:15:06.072Z,18.63
2018-10-07T15:17:36.272Z,18.30
2018-10-07T15:20:10.079Z,18.58
2018-10-07T15:22:44.167Z,18.43
2018-10-07T15:25:27.654Z,18.48
2018-10-07T15:28:16.652Z,18.52
2018-10-07T15:30:50.875Z,18.55
2018-10-07T15:33:20.213Z,18.31
2018-10-07T15:35:51.521Z,18.21
2018-10-07T15:38:24.134Z,18.24
2018-10-07T15:40:55.455Z,18.23
2018-10-07T15:43:26.435Z,18.24
2018-10-07T15:45:56.208Z,18.23
2018-10-07T15:48:26.242Z,18.19
2018-10-07T15:50:56.383Z,18.12
2018-10-07T15:53:26.716Z,18.07
2018-10-07T15:55:57.679Z,18.04
2018-10-07T15:58:29.117Z,17.96
2018-10-07T16:03:37.292Z,17.84
2018-10-07T16:06:07.372Z,17.80
2018-10-07T16:08:37.645Z,17.82
2018-10-07T16:11:09.686Z,17.72
2018-10-07T16:13:41.878Z,17.68
2018-10-07T16:16:12.971Z,17.67
2018-10-07T16:18:42.860Z,17.70
2018-10-07T16:21:12.467Z,17.71
2018-10-07T16:23:43.671Z,17.70
2018-10-07T16:26:14.385Z,17.64
2018-10-07T16:28:44.745Z,17.55
2018-10-07T16:31:16.265Z,17.52
2018-10-07T16:33:48.487Z,17.61
2018-10-07T16:36:21.684Z,17.57
2018-10-07T16:38:58.338Z,17.47
2018-10-07T16:41:33.439Z,17.48
2018-10-07T16:44:04.045Z,17.57
2018-10-07T16:46:41.368Z,17.47
2018-10-07T16:49:11.569Z,17.41
2018-10-07T16:51:46.266Z,17.30
2018-10-07T16:54:17.525Z,17.19
2018-10-07T16:56:48.460Z,17.17
2018-10-07T16:59:17.950Z,17.20
2018-10-07T17:01:48.861Z,17.17
2018-10-07T17:04:22.171Z,16.05
2018-10-07T17:06:58.516Z,17.06
2018-10-07T17:09:30.585Z,17.00
2018-10-07T17:12:00.989Z,16.89
2018-10-07T17:14:34.144Z,16.87
2018-10-07T17:17:07.500Z,16.91
2018-10-07T17:19:39.816Z,16.86
2018-10-07T17:22:17.017Z,16.85
2018-10-07T17:24:50.167Z,16.84
2018-10-07T17:27:22.887Z,16.78
2018-10-07T17:30:00.554Z,16.74
2018-10-07T17:32:33.704Z,16.80
2018-10-07T17:35:05.001Z,16.67
2018-10-07T17:37:35.438Z,16.59
2018-10-07T17:40:08.500Z,16.57
2018-10-07T17:42:43.864Z,16.57
2018-10-07T17:45:20.329Z,16.53
2018-10-07T17:48:08.365Z,16.48
2018-10-07T17:50:41.607Z,16.43
2018-10-07T17:53:15.022Z,16.37
2018-10-07T17:55:47.626Z,16.35
2018-10-07T17:58:18.438Z,16.37
2018-10-07T18:00:49.568Z,16.35
2018-10-07T18:03:30.865Z,16.45
2018-10-07T18:06:16.256Z,16.48
2018-10-07T18:08:53.379Z,16.34
2018-10-07T18:11:29.119Z,16.24
2018-10-07T18:14:14.640Z,16.18
2018-10-07T18:16:48.830Z,16.11
2018-10-07T18:19:35.897Z,16.13
2018-10-07T18:22:07.872Z,16.10
2018-10-07T18:24:39.458Z,16.10
2018-10-07T18:27:09.134Z,16.06
2018-10-07T18:29:46.592Z,15.99
2018-10-07T18:32:17.191Z,15.99
2018-10-07T18:34:48.031Z,15.97
2018-10-07T18:37:20.330Z,15.90
2018-10-07T18:39:52.484Z,15.95
2018-10-07T18:42:26.580Z,15.99
2018-10-07T18:44:57.427Z,16.15
2018-10-07T18:47:28.363Z,16.07
2018-10-07T18:49:58.671Z,16.01
2018-10-07T18:52:28.721Z,15.95
2018-10-07T18:54:59.986Z,15.82
2018-10-07T18:57:32.412Z,15.80
2018-10-07T19:00:22.838Z,15.79
2018-10-07T19:02:53.673Z,15.78
2018-10-07T19:05:32.551Z,15.76
2018-10-07T19:08:06.180Z,15.80
2018-10-07T19:10:39.166Z,15.72
2018-10-07T19:13:09.485Z,15.71
2018-10-07T19:15:44.481Z,15.59
2018-10-07T19:18:19.462Z,15.48
2018-10-07T19:20:48.896Z,15.53
2018-10-07T19:23:19.574Z,15.57
2018-10-07T19:25:58.434Z,15.41
2018-10-07T19:28:30.552Z,15.34
2018-10-07T19:31:13.257Z,15.28
2018-10-07T19:33:45.303Z,15.26
2018-10-07T19:36:21.323Z,15.40
2018-10-07T19:38:56.847Z,15.39
2018-10-07T19:41:30.067Z,15.25
2018-10-07T19:44:04.850Z,14.10
2018-10-07T19:46:35.931Z,15.21
2018-10-07T19:49:05.667Z,15.24
2018-10-07T19:51:38.195Z,15.23
2018-10-07T19:54:10.302Z,15.32
2018-10-07T19:56:48.834Z,15.19
2018-10-07T19:59:20.131Z,15.09
2018-10-07T20:01:52.254Z,14.95
2018-10-07T20:04:27.329Z,14.94
2018-10-07T20:07:01.118Z,15.03
2018-10-07T20:09:31.339Z,15.21
2018-10-07T20:12:02.724Z,15.23
2018-10-07T20:14:33.339Z,15.18
2018-10-07T20:17:08.466Z,15.17
2018-10-07T20:19:44.922Z,15.08
2018-10-07T20:22:18.743Z,15.16
2018-10-07T20:24:48.604Z,15.17
2018-10-07T20:27:19.603Z,15.14
2018-10-07T20:29:49.291Z,14.96
2018-10-07T20:32:20.712Z,15.13
2018-10-07T20:34:51.189Z,15.08
2018-10-07T20:37:23.119Z,15.09
2018-10-07T20:39:57.831Z,15.16
2018-10-07T20:45:07.696Z,14.92
2018-10-07T20:47:40.537Z,15.24
2018-10-07T20:50:15.069Z,15.16
2018-10-07T20:52:45.367Z,15.11
2018-10-07T20:55:16.509Z,15.01
2018-10-07T20:57:48.091Z,15.11
2018-10-07T21:00:27.320Z,15.05
2018-10-07T21:03:01.766Z,14.91
2018-10-07T21:05:36.825Z,14.83
2018-10-07T21:08:11.377Z,14.87
2018-10-07T21:10:44.949Z,14.79
2018-10-07T21:13:16.512Z,14.76
2018-10-07T21:15:48.885Z,14.71
2018-10-07T21:18:26.208Z,14.57
2018-10-07T21:20:56.389Z,14.54
2018-10-07T21:23:29.292Z,14.58
2018-10-07T21:26:03.192Z,14.51
2018-10-07T21:28:34.195Z,14.44
2018-10-07T21:31:04.614Z,14.41
2018-10-07T21:33:37.366Z,14.22
2018-10-07T21:36:17.292Z,14.18
2018-10-07T21:38:47.572Z,14.19
2018-10-07T21:41:18.202Z,14.19
2018-10-07T21:43:49.282Z,14.18
2018-10-07T21:46:19.520Z,14.11
2018-10-07T21:48:49.304Z,14.14
2018-10-07T21:51:20.209Z,14.08
2018-10-07T21:53:50.350Z,14.08
2018-10-07T21:56:20.230Z,14.22
2018-10-07T21:58:49.776Z,14.28
2018-10-07T22:01:21.131Z,14.23
2018-10-07T22:03:52.784Z,14.18
2018-10-07T22:06:22.343Z,14.15
2018-10-07T22:08:52.870Z,14.09
2018-10-07T22:11:22.836Z,13.90
2018-10-07T22:13:53.938Z,13.93
2018-10-07T22:16:24.086Z,13.92
2018-10-07T22:18:54.664Z,13.92
2018-10-07T22:21:30.816Z,13.93
2018-10-07T22:24:00.418Z,13.80
2018-10-07T22:26:30.897Z,13.80
2018-10-07T22:29:00.622Z,13.81
2018-10-07T22:31:31.354Z,13.82
2018-10-07T22:34:01.215Z,13.83
2018-10-07T22:36:30.901Z,13.78
2018-10-07T22:39:01.866Z,13.76
2018-10-07T22:41:32.181Z,13.71
2018-10-07T22:44:01.725Z,13.70
2018-10-07T22:46:39.141Z,13.82
2018-10-07T22:49:10.917Z,13.81
2018-10-07T22:51:41.068Z,13.86
2018-10-07T22:54:11.750Z,13.89
2018-10-07T22:56:42.426Z,13.83
2018-10-07T22:59:16.590Z,13.81
2018-10-07T23:01:46.449Z,13.89
2018-10-07T23:04:17.655Z,13.76
2018-10-07T23:06:47.233Z,13.66
2018-10-07T23:09:16.796Z,13.55
2018-10-07T23:11:47.577Z,13.57
2018-10-07T23:14:18.389Z,13.57
2018-10-07T23:16:49.898Z,13.52
2018-10-07T23:19:19.790Z,13.46
2018-10-07T23:21:50.276Z,13.36
2018-10-07T23:24:20.230Z,13.28
2018-10-07T23:26:50.191Z,13.21
2018-10-07T23:29:20.127Z,13.19
2018-10-07T23:31:50.542Z,13.20
2018-10-07T23:34:24.259Z,13.24
2018-10-07T23:36:54.539Z,13.23
2018-10-07T23:39:24.230Z,13.17
2018-10-07T23:41:53.990Z,12.92
2018-10-07T23:44:25.122Z,12.45
2018-10-07T23:46:55.158Z,12.59
2018-10-07T23:49:24.694Z,12.58
2018-10-07T23:51:54.863Z,12.54
2018-10-07T23:54:29.613Z,12.56
2018-10-07T23:57:03.057Z,12.56
2018-10-07T23:59:33.367Z,12.54
